sensor_id;sensor_type;location;lat;lon;timestamp;temperature;humidity
39045;DHT22;52192;52.002;5.956;2023-10-08T00:01:15;20.30;77.20
39045;DHT22;52192;52.002;5.956;2023-10-08T00:03:45;20.30;77.10
39045;DHT22;52192;52.002;5.956;2023-10-08T00:06:18;20.30;77.30
39045;DHT22;52192;52.002;5.956;2023-10-08T00:08:45;20.30;77.40
39045;DHT22;52192;52.002;5.956;2023-10-08T00:11:11;20.30;77.40
39045;DHT22;52192;52.002;5.956;2023-10-08T00:13:37;20.30;77.40
39045;DHT22;52192;52.002;5.956;2023-10-08T00:16:07;20.30;77.50
39045;DHT22;52192;52.002;5.956;2023-10-08T00:18:38;20.30;77.50
39045;DHT22;52192;52.002;5.956;2023-10-08T00:21:05;20.30;77.70
39045;DHT22;52192;52.002;5.956;2023-10-08T00:23:38;20.30;77.80
39045;DHT22;52192;52.002;5.956;2023-10-08T00:26:22;20.30;77.90
39045;DHT22;52192;52.002;5.956;2023-10-08T00:29:06;20.30;77.90
39045;DHT22;52192;52.002;5.956;2023-10-08T00:31:32;20.30;77.90
39045;DHT22;52192;52.002;5.956;2023-10-08T00:34:06;20.20;78.00
39045;DHT22;52192;52.002;5.956;2023-10-08T00:36:37;20.30;78.00
39045;DHT22;52192;52.002;5.956;2023-10-08T00:39:05;20.30;77.90
39045;DHT22;52192;52.002;5.956;2023-10-08T00:41:40;20.30;77.90
39045;DHT22;52192;52.002;5.956;2023-10-08T00:44:08;20.30;78.00
39045;DHT22;52192;52.002;5.956;2023-10-08T00:46:37;20.30;78.10
39045;DHT22;52192;52.002;5.956;2023-10-08T00:49:23;20.30;78.10
39045;DHT22;52192;52.002;5.956;2023-10-08T00:51:59;20.30;78.40
39045;DHT22;52192;52.002;5.956;2023-10-08T00:54:45;20.20;78.40
39045;DHT22;52192;52.002;5.956;2023-10-08T00:57:35;20.20;78.40
39045;DHT22;52192;52.002;5.956;2023-10-08T01:00:03;20.20;78.40
39045;DHT22;52192;52.002;5.956;2023-10-08T01:02:32;20.20;78.50
39045;DHT22;52192;52.002;5.956;2023-10-08T01:05:12;20.20;78.50
39045;DHT22;52192;52.002;5.956;2023-10-08T01:07:39;20.20;78.50
39045;DHT22;52192;52.002;5.956;2023-10-08T01:10:10;20.20;78.50
39045;DHT22;52192;52.002;5.956;2023-10-08T01:12:36;20.20;78.50
39045;DHT22;52192;52.002;5.956;2023-10-08T01:15:15;20.30;78.40
39045;DHT22;52192;52.002;5.956;2023-10-08T01:17:49;20.30;78.40
39045;DHT22;52192;52.002;5.956;2023-10-08T01:20:39;20.30;78.40
39045;DHT22;52192;52.002;5.956;2023-10-08T01:23:18;20.20;78.70
39045;DHT22;52192;52.002;5.956;2023-10-08T01:25:47;20.20;79.00
39045;DHT22;52192;52.002;5.956;2023-10-08T01:28:31;20.20;78.90
39045;DHT22;52192;52.002;5.956;2023-10-08T01:30:59;20.20;79.00
39045;DHT22;52192;52.002;5.956;2023-10-08T01:33:30;20.20;78.90
39045;DHT22;52192;52.002;5.956;2023-10-08T01:35:57;20.20;78.80
39045;DHT22;52192;52.002;5.956;2023-10-08T01:38:30;20.20;78.70
39045;DHT22;52192;52.002;5.956;2023-10-08T01:40:58;20.20;78.80
39045;DHT22;52192;52.002;5.956;2023-10-08T01:43:28;20.20;78.70
39045;DHT22;52192;52.002;5.956;2023-10-08T01:45:55;20.20;78.80
39045;DHT22;52192;52.002;5.956;2023-10-08T01:48:21;20.20;78.80
39045;DHT22;52192;52.002;5.956;2023-10-08T01:51:02;20.20;78.90
39045;DHT22;52192;52.002;5.956;2023-10-08T01:53:35;20.10;79.00
39045;DHT22;52192;52.002;5.956;2023-10-08T01:56:02;20.10;79.00
39045;DHT22;52192;52.002;5.956;2023-10-08T01:58:30;20.10;79.00
39045;DHT22;52192;52.002;5.956;2023-10-08T02:00:55;20.10;78.90
39045;DHT22;52192;52.002;5.956;2023-10-08T02:03:25;20.10;78.90
39045;DHT22;52192;52.002;5.956;2023-10-08T02:05:53;20.10;79.00
39045;DHT22;52192;52.002;5.956;2023-10-08T02:08:19;20.00;79.20
39045;DHT22;52192;52.002;5.956;2023-10-08T02:10:45;20.00;79.30
39045;DHT22;52192;52.002;5.956;2023-10-08T02:13:13;20.00;79.30
39045;DHT22;52192;52.002;5.956;2023-10-08T02:15:50;20.00;79.40
39045;DHT22;52192;52.002;5.956;2023-10-08T02:18:19;20.00;79.50
39045;DHT22;52192;52.002;5.956;2023-10-08T02:20:45;19.90;79.50
39045;DHT22;52192;52.002;5.956;2023-10-08T02:23:11;19.90;79.50
39045;DHT22;52192;52.002;5.956;2023-10-08T02:25:40;19.90;79.60
39045;DHT22;52192;52.002;5.956;2023-10-08T02:28:07;19.90;79.60
39045;DHT22;52192;52.002;5.956;2023-10-08T02:30:40;19.90;79.60
39045;DHT22;52192;52.002;5.956;2023-10-08T02:33:07;19.90;79.60
39045;DHT22;52192;52.002;5.956;2023-10-08T02:35:45;19.90;79.80
39045;DHT22;52192;52.002;5.956;2023-10-08T02:38:12;19.80;79.80
39045;DHT22;52192;52.002;5.956;2023-10-08T02:40:39;19.80;80.00
39045;DHT22;52192;52.002;5.956;2023-10-08T02:43:10;19.80;80.00
39045;DHT22;52192;52.002;5.956;2023-10-08T02:45:37;19.80;80.20
39045;DHT22;52192;52.002;5.956;2023-10-08T02:48:07;19.80;80.20
39045;DHT22;52192;52.002;5.956;2023-10-08T02:50:41;19.80;80.30
39045;DHT22;52192;52.002;5.956;2023-10-08T02:53:07;19.80;80.60
39045;DHT22;52192;52.002;5.956;2023-10-08T02:55:43;19.70;80.50
39045;DHT22;52192;52.002;5.956;2023-10-08T02:58:13;19.80;80.60
39045;DHT22;52192;52.002;5.956;2023-10-08T03:00:44;19.70;80.50
39045;DHT22;52192;52.002;5.956;2023-10-08T03:03:12;19.70;80.50
39045;DHT22;52192;52.002;5.956;2023-10-08T03:05:44;19.70;80.50
39045;DHT22;52192;52.002;5.956;2023-10-08T03:08:12;19.80;80.60
39045;DHT22;52192;52.002;5.956;2023-10-08T03:10:41;19.70;80.50
39045;DHT22;52192;52.002;5.956;2023-10-08T03:13:08;19.80;80.50
39045;DHT22;52192;52.002;5.956;2023-10-08T03:15:35;19.80;80.50
39045;DHT22;52192;52.002;5.956;2023-10-08T03:18:13;19.80;80.60
39045;DHT22;52192;52.002;5.956;2023-10-08T03:20:42;19.80;80.60
39045;DHT22;52192;52.002;5.956;2023-10-08T03:23:10;19.70;80.60
39045;DHT22;52192;52.002;5.956;2023-10-08T03:25:59;19.70;80.70
39045;DHT22;52192;52.002;5.956;2023-10-08T03:28:43;19.70;80.80
39045;DHT22;52192;52.002;5.956;2023-10-08T03:31:09;19.70;80.90
39045;DHT22;52192;52.002;5.956;2023-10-08T03:33:43;19.70;81.00
39045;DHT22;52192;52.002;5.956;2023-10-08T03:36:14;19.70;81.00
39045;DHT22;52192;52.002;5.956;2023-10-08T03:38:46;19.70;81.00
39045;DHT22;52192;52.002;5.956;2023-10-08T03:41:21;19.70;80.90
39045;DHT22;52192;52.002;5.956;2023-10-08T03:43:49;19.70;80.90
39045;DHT22;52192;52.002;5.956;2023-10-08T03:46:21;19.70;81.00
39045;DHT22;52192;52.002;5.956;2023-10-08T03:48:49;19.70;81.10
39045;DHT22;52192;52.002;5.956;2023-10-08T03:51:17;19.70;81.20
39045;DHT22;52192;52.002;5.956;2023-10-08T03:53:47;19.70;81.70
39045;DHT22;52192;52.002;5.956;2023-10-08T03:56:32;19.70;81.10
39045;DHT22;52192;52.002;5.956;2023-10-08T03:58:58;19.70;81.20
39045;DHT22;52192;52.002;5.956;2023-10-08T04:01:29;19.70;81.20
39045;DHT22;52192;52.002;5.956;2023-10-08T04:03:59;19.70;81.20
39045;DHT22;52192;52.002;5.956;2023-10-08T04:06:26;19.70;81.20
39045;DHT22;52192;52.002;5.956;2023-10-08T04:09:01;19.70;81.30
39045;DHT22;52192;52.002;5.956;2023-10-08T04:11:33;19.70;81.40
39045;DHT22;52192;52.002;5.956;2023-10-08T04:14:15;19.70;81.40
39045;DHT22;52192;52.002;5.956;2023-10-08T04:16:44;19.70;81.60
39045;DHT22;52192;52.002;5.956;2023-10-08T04:19:10;19.70;81.60
39045;DHT22;52192;52.002;5.956;2023-10-08T04:21:36;19.60;81.50
39045;DHT22;52192;52.002;5.956;2023-10-08T04:24:03;19.50;81.50
39045;DHT22;52192;52.002;5.956;2023-10-08T04:26:32;19.40;81.50
39045;DHT22;52192;52.002;5.956;2023-10-08T04:28:59;19.30;81.20
39045;DHT22;52192;52.002;5.956;2023-10-08T04:31:30;19.20;81.00
39045;DHT22;52192;52.002;5.956;2023-10-08T04:34:09;19.10;80.80
39045;DHT22;52192;52.002;5.956;2023-10-08T04:36:43;18.90;80.60
39045;DHT22;52192;52.002;5.956;2023-10-08T04:39:11;18.80;80.80
39045;DHT22;52192;52.002;5.956;2023-10-08T04:41:41;18.70;80.60
39045;DHT22;52192;52.002;5.956;2023-10-08T04:44:11;18.60;80.50
39045;DHT22;52192;52.002;5.956;2023-10-08T04:46:44;18.60;80.30
39045;DHT22;52192;52.002;5.956;2023-10-08T04:49:17;18.50;80.40
39045;DHT22;52192;52.002;5.956;2023-10-08T04:54:28;18.50;80.00
39045;DHT22;52192;52.002;5.956;2023-10-08T04:56:56;18.40;80.00
39045;DHT22;52192;52.002;5.956;2023-10-08T04:59:24;18.40;80.00
39045;DHT22;52192;52.002;5.956;2023-10-08T05:01:58;18.40;79.90
39045;DHT22;52192;52.002;5.956;2023-10-08T05:04:40;18.40;79.80
39045;DHT22;52192;52.002;5.956;2023-10-08T05:07:20;18.40;79.80
39045;DHT22;52192;52.002;5.956;2023-10-08T05:09:47;18.30;79.80
39045;DHT22;52192;52.002;5.956;2023-10-08T05:12:13;18.30;79.80
39045;DHT22;52192;52.002;5.956;2023-10-08T05:15:14;18.30;79.70
39045;DHT22;52192;52.002;5.956;2023-10-08T05:17:44;18.30;79.60
39045;DHT22;52192;52.002;5.956;2023-10-08T05:20:19;18.30;79.60
39045;DHT22;52192;52.002;5.956;2023-10-08T05:23:11;18.30;79.60
39045;DHT22;52192;52.002;5.956;2023-10-08T05:25:47;18.30;79.60
39045;DHT22;52192;52.002;5.956;2023-10-08T05:28:32;18.20;79.60
39045;DHT22;52192;52.002;5.956;2023-10-08T05:31:08;18.20;79.70
39045;DHT22;52192;52.002;5.956;2023-10-08T05:33:47;18.20;79.70
39045;DHT22;52192;52.002;5.956;2023-10-08T05:36:40;18.10;79.60
39045;DHT22;52192;52.002;5.956;2023-10-08T05:39:19;18.10;80.10
39045;DHT22;52192;52.002;5.956;2023-10-08T05:41:58;18.00;79.30
39045;DHT22;52192;52.002;5.956;2023-10-08T05:44:41;18.00;79.40
39045;DHT22;52192;52.002;5.956;2023-10-08T05:47:14;17.90;79.50
39045;DHT22;52192;52.002;5.956;2023-10-08T05:49:40;17.90;79.40
39045;DHT22;52192;52.002;5.956;2023-10-08T05:52:20;17.90;79.30
39045;DHT22;52192;52.002;5.956;2023-10-08T05:54:56;17.90;79.30
39045;DHT22;52192;52.002;5.956;2023-10-08T05:57:47;17.90;79.20
39045;DHT22;52192;52.002;5.956;2023-10-08T06:00:18;17.90;79.20
39045;DHT22;52192;52.002;5.956;2023-10-08T06:03:04;17.80;79.10
39045;DHT22;52192;52.002;5.956;2023-10-08T06:05:36;17.80;79.10
39045;DHT22;52192;52.002;5.956;2023-10-08T06:08:09;17.80;79.10
39045;DHT22;52192;52.002;5.956;2023-10-08T06:10:40;17.80;79.00
39045;DHT22;52192;52.002;5.956;2023-10-08T06:13:10;17.80;78.90
39045;DHT22;52192;52.002;5.956;2023-10-08T06:15:49;17.70;78.70
39045;DHT22;52192;52.002;5.956;2023-10-08T06:18:19;17.70;78.90
39045;DHT22;52192;52.002;5.956;2023-10-08T06:20:46;17.60;78.80
39045;DHT22;52192;52.002;5.956;2023-10-08T06:23:18;17.60;78.90
39045;DHT22;52192;52.002;5.956;2023-10-08T06:25:44;17.60;78.80
39045;DHT22;52192;52.002;5.956;2023-10-08T06:30:37;17.60;78.80
39045;DHT22;52192;52.002;5.956;2023-10-08T06:33:07;17.60;78.70
39045;DHT22;52192;52.002;5.956;2023-10-08T06:35:33;17.60;78.70
39045;DHT22;52192;52.002;5.956;2023-10-08T06:37:59;17.60;78.60
39045;DHT22;52192;52.002;5.956;2023-10-08T06:40:44;17.50;78.60
39045;DHT22;52192;52.002;5.956;2023-10-08T06:43:09;17.50;78.60
39045;DHT22;52192;52.002;5.956;2023-10-08T06:46:02;17.50;78.60
39045;DHT22;52192;52.002;5.956;2023-10-08T06:48:28;17.50;78.60
39045;DHT22;52192;52.002;5.956;2023-10-08T06:50:55;17.50;78.50
39045;DHT22;52192;52.002;5.956;2023-10-08T06:53:37;17.50;78.30
39045;DHT22;52192;52.002;5.956;2023-10-08T06:56:04;17.50;78.30
39045;DHT22;52192;52.002;5.956;2023-10-08T06:58:31;17.50;78.40
39045;DHT22;52192;52.002;5.956;2023-10-08T07:01:00;17.50;78.20
39045;DHT22;52192;52.002;5.956;2023-10-08T07:03:31;17.50;78.20
39045;DHT22;52192;52.002;5.956;2023-10-08T07:05:58;17.50;78.20
39045;DHT22;52192;52.002;5.956;2023-10-08T07:08:32;17.50;78.80
39045;DHT22;52192;52.002;5.956;2023-10-08T07:11:00;17.50;78.10
39045;DHT22;52192;52.002;5.956;2023-10-08T07:13:37;17.60;78.10
39045;DHT22;52192;52.002;5.956;2023-10-08T07:16:04;17.60;78.00
39045;DHT22;52192;52.002;5.956;2023-10-08T07:18:31;17.60;78.00
39045;DHT22;52192;52.002;5.956;2023-10-08T07:20:59;17.60;77.90
39045;DHT22;52192;52.002;5.956;2023-10-08T07:23:37;17.60;77.80
39045;DHT22;52192;52.002;5.956;2023-10-08T07:26:19;17.60;77.80
39045;DHT22;52192;52.002;5.956;2023-10-08T07:28:50;17.60;77.80
39045;DHT22;52192;52.002;5.956;2023-10-08T07:31:19;17.60;77.70
39045;DHT22;52192;52.002;5.956;2023-10-08T07:33:49;17.70;77.80
39045;DHT22;52192;52.002;5.956;2023-10-08T07:36:23;17.70;77.60
39045;DHT22;52192;52.002;5.956;2023-10-08T07:38:49;17.60;77.50
39045;DHT22;52192;52.002;5.956;2023-10-08T07:41:14;17.60;77.50
39045;DHT22;52192;52.002;5.956;2023-10-08T07:43:41;17.60;77.50
39045;DHT22;52192;52.002;5.956;2023-10-08T07:46:12;17.60;77.40
39045;DHT22;52192;52.002;5.956;2023-10-08T07:48:40;17.70;77.40
39045;DHT22;52192;52.002;5.956;2023-10-08T07:51:09;17.70;77.40
39045;DHT22;52192;52.002;5.956;2023-10-08T07:53:34;17.70;77.30
39045;DHT22;52192;52.002;5.956;2023-10-08T07:56:06;17.60;77.20
39045;DHT22;52192;52.002;5.956;2023-10-08T07:58:35;17.70;77.20
39045;DHT22;52192;52.002;5.956;2023-10-08T08:01:08;17.70;77.20
39045;DHT22;52192;52.002;5.956;2023-10-08T08:03:35;17.60;77.40
39045;DHT22;52192;52.002;5.956;2023-10-08T08:06:06;17.60;77.30
39045;DHT22;52192;52.002;5.956;2023-10-08T08:08:36;17.60;77.30
39045;DHT22;52192;52.002;5.956;2023-10-08T08:11:06;17.60;77.40
39045;DHT22;52192;52.002;5.956;2023-10-08T08:13:40;17.60;77.40
39045;DHT22;52192;52.002;5.956;2023-10-08T08:16:12;17.60;77.60
39045;DHT22;52192;52.002;5.956;2023-10-08T08:18:46;17.50;77.70
39045;DHT22;52192;52.002;5.956;2023-10-08T08:21:14;17.50;77.80
39045;DHT22;52192;52.002;5.956;2023-10-08T08:23:44;17.50;78.00
39045;DHT22;52192;52.002;5.956;2023-10-08T08:26:17;17.50;78.00
39045;DHT22;52192;52.002;5.956;2023-10-08T08:29:10;17.50;78.10
39045;DHT22;52192;52.002;5.956;2023-10-08T08:31:40;17.50;78.20
39045;DHT22;52192;52.002;5.956;2023-10-08T08:34:11;17.50;78.50
39045;DHT22;52192;52.002;5.956;2023-10-08T08:36:45;17.50;78.50
39045;DHT22;52192;52.002;5.956;2023-10-08T08:39:17;17.50;78.60
39045;DHT22;52192;52.002;5.956;2023-10-08T08:42:01;17.60;78.80
39045;DHT22;52192;52.002;5.956;2023-10-08T08:44:31;17.70;78.70
39045;DHT22;52192;52.002;5.956;2023-10-08T08:47:03;17.70;78.60
39045;DHT22;52192;52.002;5.956;2023-10-08T08:49:33;17.70;78.40
39045;DHT22;52192;52.002;5.956;2023-10-08T08:52:00;17.70;78.50
39045;DHT22;52192;52.002;5.956;2023-10-08T08:54:27;17.70;78.40
39045;DHT22;52192;52.002;5.956;2023-10-08T08:57:03;17.70;78.40
39045;DHT22;52192;52.002;5.956;2023-10-08T08:59:30;17.70;78.40
39045;DHT22;52192;52.002;5.956;2023-10-08T09:01:59;17.70;78.40
39045;DHT22;52192;52.002;5.956;2023-10-08T09:04:29;17.70;78.20
39045;DHT22;52192;52.002;5.956;2023-10-08T09:06:56;17.70;78.00
39045;DHT22;52192;52.002;5.956;2023-10-08T09:09:22;17.80;77.80
39045;DHT22;52192;52.002;5.956;2023-10-08T09:11:49;17.80;77.40
39045;DHT22;52192;52.002;5.956;2023-10-08T09:14:21;17.80;77.10
39045;DHT22;52192;52.002;5.956;2023-10-08T09:16:51;17.90;76.80
39045;DHT22;52192;52.002;5.956;2023-10-08T09:19:17;17.90;76.60
39045;DHT22;52192;52.002;5.956;2023-10-08T09:22:19;17.90;76.40
39045;DHT22;52192;52.002;5.956;2023-10-08T09:24:45;18.00;75.80
39045;DHT22;52192;52.002;5.956;2023-10-08T09:27:12;17.90;75.70
39045;DHT22;52192;52.002;5.956;2023-10-08T09:29:41;18.00;75.70
39045;DHT22;52192;52.002;5.956;2023-10-08T09:32:12;18.10;75.50
39045;DHT22;52192;52.002;5.956;2023-10-08T09:34:49;18.20;75.40
39045;DHT22;52192;52.002;5.956;2023-10-08T09:37:17;18.30;75.30
39045;DHT22;52192;52.002;5.956;2023-10-08T09:39:43;18.40;75.10
39045;DHT22;52192;52.002;5.956;2023-10-08T09:42:12;18.40;74.90
39045;DHT22;52192;52.002;5.956;2023-10-08T09:44:39;18.40;74.60
39045;DHT22;52192;52.002;5.956;2023-10-08T09:47:07;18.40;74.70
39045;DHT22;52192;52.002;5.956;2023-10-08T09:49:56;18.50;74.60
39045;DHT22;52192;52.002;5.956;2023-10-08T09:52:35;18.50;74.40
39045;DHT22;52192;52.002;5.956;2023-10-08T09:55:08;18.50;74.20
39045;DHT22;52192;52.002;5.956;2023-10-08T09:57:36;18.60;74.20
39045;DHT22;52192;52.002;5.956;2023-10-08T10:00:05;18.60;74.10
39045;DHT22;52192;52.002;5.956;2023-10-08T10:02:36;18.60;74.10
39045;DHT22;52192;52.002;5.956;2023-10-08T10:05:02;18.70;74.00
39045;DHT22;52192;52.002;5.956;2023-10-08T10:07:29;18.70;73.60
39045;DHT22;52192;52.002;5.956;2023-10-08T10:09:55;18.70;73.50
39045;DHT22;52192;52.002;5.956;2023-10-08T10:12:27;18.80;73.40
39045;DHT22;52192;52.002;5.956;2023-10-08T10:14:56;18.80;73.40
39045;DHT22;52192;52.002;5.956;2023-10-08T10:17:24;18.80;73.20
39045;DHT22;52192;52.002;5.956;2023-10-08T10:19:59;18.80;73.20
39045;DHT22;52192;52.002;5.956;2023-10-08T10:22:30;18.80;73.30
39045;DHT22;52192;52.002;5.956;2023-10-08T10:24:57;18.80;73.20
39045;DHT22;52192;52.002;5.956;2023-10-08T10:27:23;18.90;72.90
39045;DHT22;52192;52.002;5.956;2023-10-08T10:29:48;18.90;72.60
39045;DHT22;52192;52.002;5.956;2023-10-08T10:32:15;18.90;72.60
39045;DHT22;52192;52.002;5.956;2023-10-08T10:34:42;19.00;73.00
39045;DHT22;52192;52.002;5.956;2023-10-08T10:37:09;19.00;72.40
39045;DHT22;52192;52.002;5.956;2023-10-08T10:39:57;19.10;72.40
39045;DHT22;52192;52.002;5.956;2023-10-08T10:42:27;19.10;72.10
39045;DHT22;52192;52.002;5.956;2023-10-08T10:44:54;19.20;72.10
39045;DHT22;52192;52.002;5.956;2023-10-08T10:47:24;19.30;72.10
39045;DHT22;52192;52.002;5.956;2023-10-08T10:49:53;19.40;71.90
39045;DHT22;52192;52.002;5.956;2023-10-08T10:52:31;19.50;71.70
39045;DHT22;52192;52.002;5.956;2023-10-08T10:55:02;19.50;71.50
39045;DHT22;52192;52.002;5.956;2023-10-08T10:57:56;19.50;71.20
39045;DHT22;52192;52.002;5.956;2023-10-08T11:00:30;19.60;70.90
39045;DHT22;52192;52.002;5.956;2023-10-08T11:03:00;19.60;71.00
39045;DHT22;52192;52.002;5.956;2023-10-08T11:05:29;19.60;70.80
39045;DHT22;52192;52.002;5.956;2023-10-08T11:07:59;19.60;70.40
39045;DHT22;52192;52.002;5.956;2023-10-08T11:10:33;19.50;70.50
39045;DHT22;52192;52.002;5.956;2023-10-08T11:12:59;19.50;70.60
39045;DHT22;52192;52.002;5.956;2023-10-08T11:15:28;19.50;70.20
39045;DHT22;52192;52.002;5.956;2023-10-08T11:18:07;19.50;70.30
39045;DHT22;52192;52.002;5.956;2023-10-08T11:20:34;19.60;70.20
39045;DHT22;52192;52.002;5.956;2023-10-08T11:23:07;19.60;70.10
39045;DHT22;52192;52.002;5.956;2023-10-08T11:25:57;19.60;70.10
39045;DHT22;52192;52.002;5.956;2023-10-08T11:28:32;19.60;70.00
39045;DHT22;52192;52.002;5.956;2023-10-08T11:31:08;19.60;69.80
39045;DHT22;52192;52.002;5.956;2023-10-08T11:33:39;19.60;69.70
39045;DHT22;52192;52.002;5.956;2023-10-08T11:36:07;19.60;69.90
39045;DHT22;52192;52.002;5.956;2023-10-08T11:38:46;19.80;69.90
39045;DHT22;52192;52.002;5.956;2023-10-08T11:41:18;19.80;69.50
39045;DHT22;52192;52.002;5.956;2023-10-08T11:43:51;19.70;69.50
39045;DHT22;52192;52.002;5.956;2023-10-08T11:46:29;19.70;69.70
39045;DHT22;52192;52.002;5.956;2023-10-08T11:49:10;19.60;69.80
39045;DHT22;52192;52.002;5.956;2023-10-08T11:51:44;19.60;69.80
39045;DHT22;52192;52.002;5.956;2023-10-08T11:54:11;19.50;70.00
39045;DHT22;52192;52.002;5.956;2023-10-08T11:56:40;19.40;70.10
39045;DHT22;52192;52.002;5.956;2023-10-08T11:59:06;19.40;70.20
39045;DHT22;52192;52.002;5.956;2023-10-08T12:01:35;19.30;70.30
39045;DHT22;52192;52.002;5.956;2023-10-08T12:04:03;19.20;70.60
39045;DHT22;52192;52.002;5.956;2023-10-08T12:06:29;19.20;70.80
39045;DHT22;52192;52.002;5.956;2023-10-08T12:08:58;19.20;70.70
39045;DHT22;52192;52.002;5.956;2023-10-08T12:11:25;19.30;70.80
39045;DHT22;52192;52.002;5.956;2023-10-08T12:13:57;19.30;70.80
39045;DHT22;52192;52.002;5.956;2023-10-08T12:16:25;19.30;70.80
39045;DHT22;52192;52.002;5.956;2023-10-08T12:18:55;19.30;70.80
39045;DHT22;52192;52.002;5.956;2023-10-08T12:21:28;19.30;70.80
39045;DHT22;52192;52.002;5.956;2023-10-08T12:24:00;19.30;70.80
39045;DHT22;52192;52.002;5.956;2023-10-08T12:26:30;19.30;71.40
39045;DHT22;52192;52.002;5.956;2023-10-08T12:28:56;19.20;70.90
39045;DHT22;52192;52.002;5.956;2023-10-08T12:31:23;19.20;71.20
39045;DHT22;52192;52.002;5.956;2023-10-08T12:33:50;19.30;71.40
39045;DHT22;52192;52.002;5.956;2023-10-08T12:36:20;19.30;71.50
39045;DHT22;52192;52.002;5.956;2023-10-08T12:38:49;19.30;71.50
39045;DHT22;52192;52.002;5.956;2023-10-08T12:41:15;19.30;71.60
39045;DHT22;52192;52.002;5.956;2023-10-08T12:43:44;19.30;71.60
39045;DHT22;52192;52.002;5.956;2023-10-08T12:46:13;19.30;71.60
39045;DHT22;52192;52.002;5.956;2023-10-08T12:48:47;19.30;71.60
39045;DHT22;52192;52.002;5.956;2023-10-08T12:51:23;19.30;71.80
39045;DHT22;52192;52.002;5.956;2023-10-08T12:53:50;19.20;71.70
39045;DHT22;52192;52.002;5.956;2023-10-08T12:56:28;19.20;71.80
39045;DHT22;52192;52.002;5.956;2023-10-08T12:58:58;19.10;72.00
39045;DHT22;52192;52.002;5.956;2023-10-08T13:01:24;19.10;72.00
39045;DHT22;52192;52.002;5.956;2023-10-08T13:03:54;19.10;72.10
39045;DHT22;52192;52.002;5.956;2023-10-08T13:06:25;19.00;72.10
39045;DHT22;52192;52.002;5.956;2023-10-08T13:08:57;19.00;72.40
39045;DHT22;52192;52.002;5.956;2023-10-08T13:11:27;19.10;72.60
39045;DHT22;52192;52.002;5.956;2023-10-08T13:13:56;19.10;72.80
39045;DHT22;52192;52.002;5.956;2023-10-08T13:16:23;19.10;73.70
39045;DHT22;52192;52.002;5.956;2023-10-08T13:18:50;19.10;73.10
39045;DHT22;52192;52.002;5.956;2023-10-08T13:21:17;19.20;73.10
39045;DHT22;52192;52.002;5.956;2023-10-08T13:23:47;19.20;73.10
39045;DHT22;52192;52.002;5.956;2023-10-08T13:26:14;19.10;73.10
39045;DHT22;52192;52.002;5.956;2023-10-08T13:28:43;19.00;73.30
39045;DHT22;52192;52.002;5.956;2023-10-08T13:31:10;19.00;73.40
39045;DHT22;52192;52.002;5.956;2023-10-08T13:33:40;18.90;73.50
39045;DHT22;52192;52.002;5.956;2023-10-08T13:36:08;18.80;73.70
39045;DHT22;52192;52.002;5.956;2023-10-08T13:38:35;18.80;73.90
39045;DHT22;52192;52.002;5.956;2023-10-08T13:41:04;18.80;74.00
39045;DHT22;52192;52.002;5.956;2023-10-08T13:43:47;18.80;74.60
39045;DHT22;52192;52.002;5.956;2023-10-08T13:46:15;18.80;74.70
39045;DHT22;52192;52.002;5.956;2023-10-08T13:48:43;18.80;74.70
39045;DHT22;52192;52.002;5.956;2023-10-08T13:51:22;18.80;74.70
39045;DHT22;52192;52.002;5.956;2023-10-08T13:53:52;18.90;74.90
39045;DHT22;52192;52.002;5.956;2023-10-08T13:56:21;19.00;74.80
39045;DHT22;52192;52.002;5.956;2023-10-08T13:58:52;19.00;74.70
39045;DHT22;52192;52.002;5.956;2023-10-08T14:01:23;19.10;74.60
39045;DHT22;52192;52.002;5.956;2023-10-08T14:03:51;19.10;74.70
39045;DHT22;52192;52.002;5.956;2023-10-08T14:06:20;19.00;74.70
39045;DHT22;52192;52.002;5.956;2023-10-08T14:08:46;19.00;74.70
39045;DHT22;52192;52.002;5.956;2023-10-08T14:11:19;19.00;74.80
39045;DHT22;52192;52.002;5.956;2023-10-08T14:13:45;18.90;75.00
39045;DHT22;52192;52.002;5.956;2023-10-08T14:16:12;18.90;75.30
39045;DHT22;52192;52.002;5.956;2023-10-08T14:18:39;18.80;75.40
39045;DHT22;52192;52.002;5.956;2023-10-08T14:21:09;18.90;75.60
39045;DHT22;52192;52.002;5.956;2023-10-08T14:23:37;18.90;75.70
39045;DHT22;52192;52.002;5.956;2023-10-08T14:26:08;18.90;75.70
39045;DHT22;52192;52.002;5.956;2023-10-08T14:28:37;18.90;75.70
39045;DHT22;52192;52.002;5.956;2023-10-08T14:31:24;18.90;75.90
39045;DHT22;52192;52.002;5.956;2023-10-08T14:33:52;18.80;76.00
39045;DHT22;52192;52.002;5.956;2023-10-08T14:36:36;18.90;76.10
39045;DHT22;52192;52.002;5.956;2023-10-08T14:39:20;18.80;76.20
39045;DHT22;52192;52.002;5.956;2023-10-08T14:42:15;18.80;76.30
39045;DHT22;52192;52.002;5.956;2023-10-08T14:44:59;18.80;76.50
39045;DHT22;52192;52.002;5.956;2023-10-08T14:47:26;18.80;76.50
39045;DHT22;52192;52.002;5.956;2023-10-08T14:49:52;18.80;76.70
39045;DHT22;52192;52.002;5.956;2023-10-08T14:52:18;18.70;76.70
39045;DHT22;52192;52.002;5.956;2023-10-08T14:54:44;18.70;76.70
39045;DHT22;52192;52.002;5.956;2023-10-08T14:57:11;18.70;76.80
39045;DHT22;52192;52.002;5.956;2023-10-08T14:59:42;18.70;76.80
39045;DHT22;52192;52.002;5.956;2023-10-08T15:02:08;18.70;76.90
39045;DHT22;52192;52.002;5.956;2023-10-08T15:04:37;18.70;76.90
39045;DHT22;52192;52.002;5.956;2023-10-08T15:07:05;18.70;76.90
39045;DHT22;52192;52.002;5.956;2023-10-08T15:09:36;18.80;76.90
39045;DHT22;52192;52.002;5.956;2023-10-08T15:12:03;18.80;77.00
39045;DHT22;52192;52.002;5.956;2023-10-08T15:14:28;18.70;77.00
39045;DHT22;52192;52.002;5.956;2023-10-08T15:16:54;18.70;77.00
39045;DHT22;52192;52.002;5.956;2023-10-08T15:19:23;18.70;76.90
39045;DHT22;52192;52.002;5.956;2023-10-08T15:21:50;18.70;76.90
39045;DHT22;52192;52.002;5.956;2023-10-08T15:24:22;18.70;77.00
39045;DHT22;52192;52.002;5.956;2023-10-08T15:26:49;18.70;76.90
39045;DHT22;52192;52.002;5.956;2023-10-08T15:29:15;18.70;76.90
39045;DHT22;52192;52.002;5.956;2023-10-08T15:31:41;18.70;76.80
39045;DHT22;52192;52.002;5.956;2023-10-08T15:34:08;18.80;76.90
39045;DHT22;52192;52.002;5.956;2023-10-08T15:36:34;18.80;76.70
39045;DHT22;52192;52.002;5.956;2023-10-08T15:39:00;18.70;76.70
39045;DHT22;52192;52.002;5.956;2023-10-08T15:41:25;18.80;76.80
39045;DHT22;52192;52.002;5.956;2023-10-08T15:43:51;18.70;76.70
39045;DHT22;52192;52.002;5.956;2023-10-08T15:46:19;18.70;76.60
39045;DHT22;52192;52.002;5.956;2023-10-08T15:48:45;18.70;76.60
39045;DHT22;52192;52.002;5.956;2023-10-08T15:51:12;18.70;76.50
39045;DHT22;52192;52.002;5.956;2023-10-08T15:53:37;18.60;76.60
39045;DHT22;52192;52.002;5.956;2023-10-08T15:56:04;18.70;76.70
39045;DHT22;52192;52.002;5.956;2023-10-08T15:58:30;18.60;77.20
39045;DHT22;52192;52.002;5.956;2023-10-08T16:00:56;18.60;76.60